Time;durP1;ratioP1;P1;durP2;ratioP2;P2;SDS_P1;SDS_P2;PMS_P1;PMS_P2;Temp;Humidity;BMP_temperature;BMP_pressure;BME280_temperature;BME280_humidity;BME280_pressure;Samples;Min_cycle;Max_cycle;Signal;HPM_P1;HPM_P2
2020/12/18 00:00:23;;;;;;;9.10;4.00;;;8.30;85.30;;;;;;4994112;28;20021;-85
2020/12/18 00:02:49;;;;;;;7.87;3.63;;;8.20;85.20;;;;;;5012177;28;20462;-85
2020/12/18 00:05:15;;;;;;;9.17;3.60;;;8.30;85.50;;;;;;5011943;28;20061;-85
2020/12/18 00:07:43;;;;;;;9.07;3.70;;;8.30;85.00;;;;;;5012434;28;20277;-85
2020/12/18 00:10:09;;;;;;;11.93;3.70;;;8.30;84.90;;;;;;4995921;28;20084;-84
2020/12/18 00:12:38;;;;;;;8.93;4.00;;;8.30;84.90;;;;;;4994410;28;20030;-85
2020/12/18 00:15:03;;;;;;;11.23;4.55;;;8.30;85.10;;;;;;5033074;23;20041;-84
2020/12/18 00:17:29;;;;;;;9.33;3.93;;;8.30;84.90;;;;;;5036569;28;20026;-84
2020/12/18 00:19:55;;;;;;;8.07;3.53;;;8.30;84.70;;;;;;5019720;28;20021;-85
2020/12/18 00:22:20;;;;;;;9.57;4.10;;;8.20;84.80;;;;;;5020207;28;20113;-85
2020/12/18 00:24:46;;;;;;;8.93;3.30;;;8.20;85.10;;;;;;5020116;28;20385;-85
2020/12/18 00:27:11;;;;;;;8.33;3.80;;;8.20;85.00;;;;;;5020126;28;20159;-84
2020/12/18 00:29:37;;;;;;;9.70;4.03;;;8.20;85.30;;;;;;5019297;28;20037;-83
2020/12/18 00:32:04;;;;;;;5.90;3.20;;;8.10;85.20;;;;;;5020701;28;20500;-84
2020/12/18 00:34:30;;;;;;;13.47;3.77;;;8.20;85.50;;;;;;5020079;28;20029;-84
2020/12/18 00:36:55;;;;;;;9.17;3.60;;;8.20;85.20;;;;;;5020367;28;20404;-81
2020/12/18 00:39:21;;;;;;;9.37;4.03;;;8.10;85.40;;;;;;5019715;28;20017;-84
2020/12/18 00:41:55;;;;;;;7.43;3.57;;;8.10;85.50;;;;;;5037721;28;20020;-84
2020/12/18 00:44:21;;;;;;;10.33;3.87;;;8.20;85.30;;;;;;5019677;28;20445;-81
2020/12/18 00:46:47;;;;;;;9.03;3.90;;;8.10;85.50;;;;;;5037952;28;20029;-83
2020/12/18 00:49:16;;;;;;;7.20;3.80;;;8.10;85.50;;;;;;5037129;28;20036;-84
2020/12/18 00:51:41;;;;;;;9.53;3.53;;;8.10;85.60;;;;;;5037402;28;20033;-84
2020/12/18 00:54:08;;;;;;;9.17;3.70;;;8.10;85.40;;;;;;5037596;28;20025;-83
2020/12/18 00:56:33;;;;;;;9.83;4.20;;;8.10;85.50;;;;;;5019751;28;20033;-84
2020/12/18 00:58:59;;;;;;;7.03;3.60;;;8.10;85.40;;;;;;5037673;28;20080;-83
2020/12/18 01:01:24;;;;;;;7.93;3.17;;;8.20;85.30;;;;;;5038300;28;20072;-84
2020/12/18 01:03:50;;;;;;;10.43;3.63;;;8.10;85.70;;;;;;5038205;28;20059;-84
2020/12/18 01:06:16;;;;;;;9.37;3.43;;;8.10;85.60;;;;;;5020931;28;20029;-83
2020/12/18 01:08:42;;;;;;;8.63;3.30;;;8.10;85.70;;;;;;5021738;28;20025;-83
2020/12/18 01:11:08;;;;;;;8.17;3.50;;;8.10;85.60;;;;;;5041119;28;20029;-83
2020/12/18 01:13:34;;;;;;;10.03;3.60;;;8.10;85.50;;;;;;5026210;28;20030;-83
2020/12/18 01:16:00;;;;;;;7.27;3.60;;;8.10;85.60;;;;;;5043914;28;20021;-82
2020/12/18 01:18:26;;;;;;;9.23;3.47;;;8.10;85.60;;;;;;5036574;28;20032;-83
2020/12/18 01:20:52;;;;;;;10.40;3.63;;;8.20;85.80;;;;;;5017715;28;20551;-83
2020/12/18 01:23:19;;;;;;;10.47;3.73;;;8.10;85.70;;;;;;5036026;28;20030;-83
2020/12/18 01:25:45;;;;;;;7.17;3.50;;;8.10;85.40;;;;;;5018220;28;20029;-83
2020/12/18 01:28:11;;;;;;;6.30;3.33;;;8.10;85.70;;;;;;5035150;28;20026;-83
2020/12/18 01:30:37;;;;;;;9.83;3.70;;;8.10;86.20;;;;;;5035189;28;20039;-83
2020/12/18 01:33:03;;;;;;;11.40;3.37;;;8.10;85.70;;;;;;5018177;28;20045;-83
2020/12/18 01:35:28;;;;;;;9.47;3.77;;;8.10;85.50;;;;;;5035759;28;20390;-83
2020/12/18 01:37:54;;;;;;;8.47;3.60;;;8.10;85.50;;;;;;5017879;28;20040;-83
2020/12/18 01:40:20;;;;;;;10.37;3.70;;;8.10;85.50;;;;;;5035508;28;20028;-83
2020/12/18 01:42:45;;;;;;;7.93;3.50;;;8.00;85.50;;;;;;5036194;28;20029;-83
2020/12/18 01:45:11;;;;;;;7.77;3.60;;;8.00;86.00;;;;;;5017835;28;20021;-83
2020/12/18 01:47:37;;;;;;;10.90;3.67;;;8.00;85.80;;;;;;5018156;28;20716;-83
2020/12/18 01:50:04;;;;;;;7.80;3.47;;;8.00;85.80;;;;;;5035635;28;20394;-83
2020/12/18 01:52:31;;;;;;;9.50;3.90;;;8.00;85.90;;;;;;5035329;28;20034;-83
2020/12/18 01:55:05;;;;;;;10.03;3.80;;;8.00;85.60;;;;;;5035933;28;20025;-84
2020/12/18 01:57:32;;;;;;;7.87;3.90;;;8.00;85.60;;;;;;5017632;28;20402;-83
2020/12/18 02:00:00;;;;;;;7.77;3.33;;;8.00;85.80;;;;;;5035171;28;20021;-83
2020/12/18 02:02:26;;;;;;;9.83;4.10;;;8.00;85.80;;;;;;5017808;28;20161;-82
2020/12/18 02:04:51;;;;;;;11.83;3.97;;;8.00;85.80;;;;;;5017722;28;20036;-84
2020/12/18 02:07:23;;;;;;;8.37;3.50;;;8.00;85.70;;;;;;5017774;28;20030;-84
2020/12/18 02:09:49;;;;;;;10.40;3.23;;;8.00;85.90;;;;;;5016966;28;20029;-83
2020/12/18 02:12:15;;;;;;;7.63;3.17;;;8.00;85.70;;;;;;5035288;28;20052;-84
2020/12/18 02:14:41;;;;;;;10.87;3.13;;;8.00;85.70;;;;;;5017973;28;20034;-83
2020/12/18 02:17:07;;;;;;;10.33;3.07;;;8.00;85.70;;;;;;5035436;28;20029;-83
2020/12/18 02:19:35;;;;;;;8.77;3.33;;;8.00;85.70;;;;;;5035148;28;20029;-83
2020/12/18 02:22:30;;;;;;;9.53;3.40;;;8.00;85.60;;;;;;5017478;28;20048;-83
2020/12/18 02:25:07;;;;;;;8.30;3.30;;;8.00;85.60;;;;;;5022372;28;20041;-83
2020/12/18 02:27:37;;;;;;;10.00;3.07;;;8.00;85.80;;;;;;5035702;28;20034;-83
2020/12/18 02:30:04;;;;;;;8.27;3.17;;;8.00;85.90;;;;;;5017069;28;20393;-83
2020/12/18 02:32:30;;;;;;;11.60;3.53;;;7.90;85.70;;;;;;5016984;28;20037;-83
2020/12/18 02:34:55;;;;;;;9.73;3.50;;;7.90;86.60;;;;;;5035635;28;20030;-83
2020/12/18 02:37:21;;;;;;;9.67;3.60;;;7.90;85.80;;;;;;5035164;28;20040;-84
2020/12/18 02:39:46;;;;;;;8.77;3.20;;;7.90;86.10;;;;;;5034365;28;20025;-83
2020/12/18 02:42:12;;;;;;;9.10;3.23;;;7.90;86.10;;;;;;5034573;28;20075;-83
2020/12/18 02:44:38;;;;;;;6.53;3.00;;;7.80;86.00;;;;;;5017004;28;20029;-83
2020/12/18 02:47:03;;;;;;;11.70;3.43;;;7.90;86.20;;;;;;5034939;28;20429;-83
2020/12/18 02:49:29;;;;;;;8.37;3.43;;;7.80;86.20;;;;;;5034358;28;20072;-83
2020/12/18 02:51:55;;;;;;;10.77;3.40;;;7.90;86.50;;;;;;5016748;28;20041;-83
2020/12/18 02:54:20;;;;;;;8.73;3.27;;;7.80;86.10;;;;;;5035330;28;20032;-84
2020/12/18 02:56:46;;;;;;;7.90;3.30;;;7.90;86.30;;;;;;5035267;28;20671;-83
2020/12/18 02:59:12;;;;;;;9.27;2.90;;;7.90;86.00;;;;;;5034388;28;20026;-83
2020/12/18 03:01:37;;;;;;;8.77;3.10;;;7.90;86.10;;;;;;5034964;28;20029;-84
2020/12/18 03:04:03;;;;;;;8.03;2.90;;;7.90;86.20;;;;;;5034669;28;20582;-83
2020/12/18 03:06:29;;;;;;;7.83;3.13;;;7.90;85.80;;;;;;5016620;28;20032;-84
2020/12/18 03:08:54;;;;;;;9.27;3.97;;;7.90;86.10;;;;;;5017823;28;20053;-84
2020/12/18 03:11:20;;;;;;;10.20;3.37;;;7.90;85.90;;;;;;5034221;28;20036;-83
2020/12/18 03:13:49;;;;;;;8.33;3.07;;;8.00;86.00;;;;;;5016191;28;20065;-82
2020/12/18 03:16:15;;;;;;;8.70;2.70;;;7.90;85.90;;;;;;5034390;28;20076;-83
2020/12/18 03:18:41;;;;;;;5.87;2.60;;;7.90;86.20;;;;;;5034141;28;20489;-83
2020/12/18 03:21:07;;;;;;;5.97;2.33;;;8.00;86.10;;;;;;5033587;28;20031;-83
2020/12/18 03:23:33;;;;;;;7.20;2.73;;;7.90;86.20;;;;;;5034197;28;20096;-83
2020/12/18 03:25:58;;;;;;;7.60;2.60;;;7.90;86.20;;;;;;5016185;28;20072;-83
2020/12/18 03:28:24;;;;;;;8.80;2.80;;;7.90;86.00;;;;;;5034108;28;20029;-82
2020/12/18 03:30:50;;;;;;;8.90;2.70;;;7.90;85.90;;;;;;5015756;28;20025;-83
2020/12/18 03:33:16;;;;;;;6.33;2.50;;;7.90;86.20;;;;;;5034009;28;20489;-82
2020/12/18 03:35:41;;;;;;;7.93;2.70;;;7.90;86.30;;;;;;5034604;28;20037;-83
2020/12/18 03:38:07;;;;;;;6.10;2.37;;;7.90;86.30;;;;;;5033819;28;20026;-83
2020/12/18 03:40:32;;;;;;;7.10;2.80;;;8.00;86.20;;;;;;5033805;28;20067;-83
2020/12/18 03:42:58;;;;;;;6.37;2.60;;;8.00;86.20;;;;;;5034226;28;20475;-83
2020/12/18 03:45:24;;;;;;;8.37;2.60;;;7.90;86.10;;;;;;5015940;28;20029;-81
2020/12/18 03:47:49;;;;;;;7.07;2.40;;;7.90;86.30;;;;;;5016421;28;20033;-82
2020/12/18 03:50:15;;;;;;;8.00;2.60;;;7.90;86.50;;;;;;5014817;28;20061;-83
2020/12/18 03:52:41;;;;;;;6.30;2.30;;;7.90;86.30;;;;;;5017613;28;20052;-83
2020/12/18 03:55:07;;;;;;;7.80;2.30;;;8.00;86.20;;;;;;5038354;28;20033;-83
2020/12/18 03:57:32;;;;;;;8.93;2.70;;;8.00;86.30;;;;;;5020115;28;20044;-83
2020/12/18 03:59:58;;;;;;;4.17;2.10;;;8.00;86.20;;;;;;5019910;28;20025;-82
2020/12/18 04:02:24;;;;;;;6.87;2.67;;;8.00;86.30;;;;;;5038075;28;20079;-82
2020/12/18 04:04:50;;;;;;;6.10;2.27;;;8.00;86.20;;;;;;5038244;28;20022;-83
2020/12/18 04:07:15;;;;;;;7.13;2.87;;;8.00;86.30;;;;;;5038602;28;20022;-83
2020/12/18 04:09:41;;;;;;;10.43;2.90;;;7.90;86.60;;;;;;5037818;28;20371;-82
2020/12/18 04:12:08;;;;;;;7.33;2.53;;;8.00;86.50;;;;;;5038112;28;20386;-83
2020/12/18 04:14:34;;;;;;;8.60;2.57;;;7.90;86.60;;;;;;5038584;28;20383;-83
2020/12/18 04:17:02;;;;;;;5.43;2.20;;;7.90;86.50;;;;;;5038423;28;20079;-82
2020/12/18 04:19:27;;;;;;;6.43;2.23;;;7.90;86.60;;;;;;5038483;28;20083;-83
2020/12/18 04:21:53;;;;;;;6.33;2.33;;;7.90;86.50;;;;;;5038348;28;20025;-83
2020/12/18 04:24:18;;;;;;;5.23;2.67;;;7.90;86.70;;;;;;5038183;28;20022;-83
2020/12/18 04:26:44;;;;;;;6.40;2.53;;;7.90;87.40;;;;;;5038702;28;20025;-83
2020/12/18 04:29:10;;;;;;;7.43;3.20;;;7.90;86.80;;;;;;5038359;28;20028;-83
2020/12/18 04:31:35;;;;;;;8.47;2.10;;;7.90;86.80;;;;;;5020847;28;20026;-83
2020/12/18 04:34:01;;;;;;;8.27;2.87;;;7.90;86.80;;;;;;5039079;28;20029;-83
2020/12/18 04:36:26;;;;;;;9.67;2.73;;;7.90;87.00;;;;;;5021073;28;20244;-83
2020/12/18 04:38:52;;;;;;;8.67;2.70;;;7.90;86.90;;;;;;5020632;28;20028;-83
2020/12/18 04:41:18;;;;;;;5.63;2.63;;;7.90;86.80;;;;;;5038228;28;20100;-83
2020/12/18 04:43:44;;;;;;;9.97;2.73;;;7.90;86.90;;;;;;5020859;28;20028;-82
2020/12/18 04:46:15;;;;;;;7.67;2.30;;;8.00;86.90;;;;;;5038487;28;20471;-83
2020/12/18 04:48:42;;;;;;;6.17;2.60;;;7.90;86.70;;;;;;5038549;28;20025;-83
2020/12/18 04:51:16;;;;;;;8.83;2.50;;;7.90;86.60;;;;;;5038231;28;20049;-83
2020/12/18 04:53:42;;;;;;;7.70;2.53;;;7.90;86.60;;;;;;5039116;28;20021;-83
2020/12/18 04:56:11;;;;;;;8.23;2.13;;;7.90;86.70;;;;;;5039734;28;20425;-83
2020/12/18 04:58:37;;;;;;;;;;;7.90;86.80;;;;;;5042491;28;20030;-83
2020/12/18 05:01:04;;;;;;;7.10;2.60;;;7.90;86.90;;;;;;5040066;28;19905;-83
2020/12/18 05:03:34;;;;;;;6.53;2.30;;;7.90;86.70;;;;;;5020159;28;20025;-82
2020/12/18 05:06:03;;;;;;;5.60;2.03;;;7.90;86.80;;;;;;5018524;28;20017;-84
2020/12/18 05:08:30;;;;;;;8.02;2.85;;;7.90;86.70;;;;;;5018410;28;20026;-83
2020/12/18 05:10:56;;;;;;;6.00;2.30;;;7.90;86.70;;;;;;5035903;28;20471;-83
2020/12/18 05:13:23;;;;;;;7.57;2.30;;;7.90;86.90;;;;;;5036057;28;20516;-82
2020/12/18 05:15:48;;;;;;;7.37;2.20;;;7.90;87.60;;;;;;5036350;28;20112;-83
2020/12/18 05:18:14;;;;;;;9.83;2.80;;;7.90;86.80;;;;;;5036336;28;20076;-83
2020/12/18 05:20:41;;;;;;;8.33;2.33;;;7.80;87.00;;;;;;5035783;28;20079;-83
2020/12/18 05:23:10;;;;;;;7.17;2.30;;;7.80;87.30;;;;;;5035730;28;20075;-83
2020/12/18 05:25:38;;;;;;;7.45;2.40;;;7.90;87.30;;;;;;5036167;28;20021;-83
2020/12/18 05:28:04;;;;;;;9.37;2.53;;;7.90;87.10;;;;;;5036018;28;20060;-83
2020/12/18 05:30:31;;;;;;;6.77;2.30;;;7.90;87.00;;;;;;5017939;28;20394;-82
2020/12/18 05:32:57;;;;;;;7.43;2.57;;;7.90;86.90;;;;;;5036029;28;20044;-83
2020/12/18 05:35:22;;;;;;;8.30;2.50;;;8.00;86.80;;;;;;5036035;28;20029;-83
2020/12/18 05:37:50;;;;;;;7.37;2.37;;;7.90;87.00;;;;;;5035806;28;20030;-82
2020/12/18 05:40:17;;;;;;;7.63;2.20;;;7.90;86.80;;;;;;5035335;28;20022;-83
2020/12/18 05:42:47;;;;;;;7.43;2.20;;;7.90;87.10;;;;;;5017679;28;20087;-82
2020/12/18 05:45:18;;;;;;;7.63;2.10;;;7.80;87.10;;;;;;5017738;28;20029;-82
2020/12/18 05:48:00;;;;;;;7.43;2.30;;;7.90;87.20;;;;;;5035529;28;20053;-83
2020/12/18 05:50:35;;;;;;;8.83;3.00;;;7.90;86.80;;;;;;5034922;28;20091;-83
2020/12/18 05:53:03;;;;;;;9.13;3.23;;;7.90;87.10;;;;;;5017723;28;20071;-83
2020/12/18 05:55:38;;;;;;;6.77;2.20;;;7.90;87.10;;;;;;5035537;28;20025;-83
2020/12/18 05:58:03;;;;;;;5.97;2.20;;;7.90;87.20;;;;;;5035677;28;20482;-83
2020/12/18 06:00:29;;;;;;;5.50;2.23;;;7.90;87.10;;;;;;5017714;28;20024;-83
2020/12/18 06:03:02;;;;;;;9.53;2.67;;;7.90;87.00;;;;;;5036549;28;20025;-82
2020/12/18 06:05:28;;;;;;;8.97;2.77;;;7.90;86.70;;;;;;5017770;28;20075;-83
2020/12/18 06:07:54;;;;;;;9.10;2.70;;;7.90;86.60;;;;;;5035694;28;20413;-82
2020/12/18 06:10:22;;;;;;;11.83;2.60;;;7.90;86.90;;;;;;5034281;28;20025;-82
2020/12/18 06:12:48;;;;;;;6.47;2.60;;;7.90;86.70;;;;;;5035214;28;20063;-82
2020/12/18 06:15:16;;;;;;;6.43;2.40;;;7.90;86.70;;;;;;5035625;28;20402;-83
2020/12/18 06:17:45;;;;;;;11.03;2.53;;;7.90;86.90;;;;;;5034908;28;20359;-83
2020/12/18 06:20:13;;;;;;;7.60;2.80;;;7.90;86.80;;;;;;5034261;28;20500;-82
2020/12/18 06:22:52;;;;;;;6.50;2.60;;;7.90;86.60;;;;;;5035165;28;20067;-82
2020/12/18 06:25:18;;;;;;;5.88;2.25;;;7.90;87.50;;;;;;5034542;28;20021;-83
2020/12/18 06:27:44;;;;;;;6.13;2.33;;;7.90;86.70;;;;;;5034557;28;20032;-83
2020/12/18 06:30:09;;;;;;;9.73;2.63;;;7.90;86.80;;;;;;5016758;28;20052;-83
2020/12/18 06:32:35;;;;;;;7.47;2.10;;;7.90;86.80;;;;;;5034801;28;20017;-83
2020/12/18 06:35:30;;;;;;;8.20;2.20;;;7.80;87.10;;;;;;5016676;28;20025;-82
2020/12/18 06:38:16;;;;;;;9.20;2.47;;;7.80;87.10;;;;;;5034738;28;20030;-82
2020/12/18 06:40:42;;;;;;;10.43;2.30;;;7.80;87.20;;;;;;5023729;28;20091;-83
2020/12/18 06:43:09;;;;;;;11.13;3.47;;;7.80;87.10;;;;;;5035514;28;20408;-83
2020/12/18 06:45:35;;;;;;;12.90;4.07;;;7.80;87.20;;;;;;5017801;28;20033;-83
2020/12/18 06:48:27;;;;;;;11.23;3.13;;;7.80;87.10;;;;;;5018062;28;20030;-83
2020/12/18 06:50:53;;;;;;;8.73;3.03;;;7.90;87.10;;;;;;5034602;28;20025;-83
2020/12/18 06:53:19;;;;;;;8.63;2.80;;;7.80;87.10;;;;;;5035241;28;20030;-83
2020/12/18 06:55:45;;;;;;;5.37;2.10;;;7.80;87.20;;;;;;5017838;28;20041;-84
2020/12/18 06:58:13;;;;;;;10.97;2.83;;;7.90;87.00;;;;;;5035457;28;20123;-82
2020/12/18 07:00:45;;;;;;;9.40;4.70;;;7.80;86.80;;;;;;5035352;28;20024;-83
2020/12/18 07:03:40;;;;;;;6.47;2.40;;;7.80;87.10;;;;;;5017384;28;20024;-83
2020/12/18 07:06:27;;;;;;;8.13;2.73;;;7.80;87.20;;;;;;5035648;28;20056;-84
2020/12/18 07:08:58;;;;;;;8.20;2.80;;;7.80;87.30;;;;;;5017378;28;20021;-83
2020/12/18 07:11:23;;;;;;;9.97;2.43;;;7.80;87.30;;;;;;5017796;28;20025;-83
2020/12/18 07:13:51;;;;;;;6.93;2.33;;;7.80;87.20;;;;;;5035701;28;20079;-83
2020/12/18 07:16:26;;;;;;;6.37;2.30;;;7.80;87.90;;;;;;5017809;28;20082;-84
2020/12/18 07:18:55;;;;;;;6.43;2.50;;;7.80;86.90;;;;;;5017525;28;20052;-83
2020/12/18 07:21:21;;;;;;;7.32;2.22;;;7.80;87.10;;;;;;5018196;28;20029;-84
2020/12/18 07:23:48;;;;;;;9.43;2.73;;;7.80;87.20;;;;;;5018652;28;20030;-83
2020/12/18 07:26:16;;;;;;;9.47;2.77;;;7.80;86.90;;;;;;5035445;28;20061;-83
2020/12/18 07:28:42;;;;;;;8.10;2.33;;;7.80;87.20;;;;;;5018143;28;20026;-83
2020/12/18 07:31:21;;;;;;;10.00;2.83;;;7.80;87.20;;;;;;5034487;28;20402;-83
2020/12/18 07:33:54;;;;;;;7.20;2.22;;;7.80;87.10;;;;;;5035623;28;20029;-83
2020/12/18 07:36:20;;;;;;;8.13;2.40;;;7.80;87.20;;;;;;5017244;28;20049;-83
2020/12/18 07:38:46;;;;;;;6.07;2.30;;;7.80;87.00;;;;;;5035177;28;20052;-84
2020/12/18 07:41:15;;;;;;;4.87;2.37;;;7.80;87.10;;;;;;5034986;28;20391;-84
2020/12/18 07:43:46;;;;;;;6.23;2.43;;;7.80;87.30;;;;;;5018568;28;20033;-83
2020/12/18 07:46:22;;;;;;;6.67;2.10;;;7.80;87.00;;;;;;5020722;28;20030;-83
2020/12/18 07:48:48;;;;;;;8.57;2.23;;;7.80;87.00;;;;;;5035941;28;20087;-82
2020/12/18 07:51:19;;;;;;;8.27;2.43;;;7.80;86.90;;;;;;5036668;28;20049;-83
2020/12/18 07:53:45;;;;;;;7.77;2.33;;;7.80;87.10;;;;;;5036586;28;20067;-83
2020/12/18 07:56:21;;;;;;;9.47;2.43;;;7.80;87.20;;;;;;5037236;28;20393;-83
2020/12/18 07:58:50;;;;;;;11.83;2.53;;;7.80;87.30;;;;;;5037359;28;20021;-83
2020/12/18 08:01:20;;;;;;;7.83;2.30;;;7.80;87.30;;;;;;5035135;28;20021;-83
2020/12/18 08:03:56;;;;;;;8.23;2.80;;;7.80;87.40;;;;;;5034564;28;20056;-83
2020/12/18 08:06:27;;;;;;;7.93;2.73;;;7.80;87.40;;;;;;5017412;28;20482;-83
2020/12/18 08:09:01;;;;;;;8.97;3.13;;;7.90;87.30;;;;;;5034471;28;20052;-83
2020/12/18 08:11:30;;;;;;;9.63;2.70;;;7.90;87.30;;;;;;5035051;28;20026;-83
2020/12/18 08:13:57;;;;;;;7.55;2.60;;;7.90;86.80;;;;;;5016796;28;20446;-83
2020/12/18 08:16:25;;;;;;;11.67;2.47;;;7.90;87.30;;;;;;5035370;28;20025;-83
2020/12/18 08:18:59;;;;;;;6.72;2.70;;;7.90;87.10;;;;;;5016118;28;20032;-84
2020/12/18 08:21:27;;;;;;;7.63;2.50;;;7.90;87.20;;;;;;5034677;28;20033;-83
2020/12/18 08:24:00;;;;;;;5.80;2.30;;;7.90;87.20;;;;;;5035251;28;20067;-83
2020/12/18 08:26:31;;;;;;;7.00;2.40;;;7.90;87.20;;;;;;5016182;28;20032;-83
2020/12/18 08:28:58;;;;;;;7.60;2.23;;;7.90;87.20;;;;;;5033463;28;20498;-83
2020/12/18 08:31:23;;;;;;;6.33;2.27;;;8.00;87.30;;;;;;5033829;28;20067;-83
2020/12/18 08:33:53;;;;;;;6.57;2.20;;;8.00;87.30;;;;;;5015867;28;20112;-83
2020/12/18 08:36:23;;;;;;;7.30;2.10;;;8.00;87.30;;;;;;5034064;28;20017;-83
2020/12/18 08:39:05;;;;;;;4.80;2.00;;;8.00;87.20;;;;;;5034868;28;20068;-83
2020/12/18 08:42:00;;;;;;;7.90;2.50;;;8.10;87.30;;;;;;5029509;28;20017;-83
2020/12/18 08:44:28;;;;;;;6.40;2.47;;;8.10;87.20;;;;;;5020896;28;20029;-83
2020/12/18 08:46:56;;;;;;;6.27;2.07;;;8.10;87.20;;;;;;5019850;28;20099;-83
2020/12/18 08:49:25;;;;;;;8.20;2.53;;;8.10;87.10;;;;;;5018724;28;20029;-83
2020/12/18 08:51:53;;;;;;;6.50;2.22;;;8.10;87.10;;;;;;5036718;28;20101;-83
2020/12/18 08:54:22;;;;;;;4.20;1.73;;;8.10;87.20;;;;;;5037299;28;20030;-83
2020/12/18 08:57:05;;;;;;;11.18;2.42;;;8.20;87.20;;;;;;5036712;28;20083;-83
2020/12/18 08:59:31;;;;;;;7.33;2.23;;;8.20;87.10;;;;;;5037007;28;20021;-83
2020/12/18 09:01:56;;;;;;;6.80;2.00;;;8.20;87.10;;;;;;5019126;28;20032;-83
2020/12/18 09:04:22;;;;;;;7.17;2.60;;;8.20;87.20;;;;;;5037324;28;20478;-83
2020/12/18 09:06:51;;;;;;;7.47;2.90;;;8.20;87.10;;;;;;5037140;28;20025;-83
2020/12/18 09:09:20;;;;;;;8.55;2.40;;;8.20;87.20;;;;;;5018749;28;20025;-83
2020/12/18 09:11:47;;;;;;;7.22;2.30;;;8.20;87.10;;;;;;5036860;28;20052;-83
2020/12/18 09:14:29;;;;;;;12.57;2.43;;;8.20;87.00;;;;;;5037345;28;20025;-83
2020/12/18 09:16:58;;;;;;;8.60;2.93;;;8.20;87.00;;;;;;5018487;28;20402;-83
2020/12/18 09:19:24;;;;;;;6.63;2.40;;;8.20;87.20;;;;;;5035937;28;20029;-83
2020/12/18 09:21:50;;;;;;;8.00;2.43;;;8.20;87.20;;;;;;5019225;28;20014;-83
2020/12/18 09:24:20;;;;;;;9.60;2.40;;;8.30;87.30;;;;;;5037006;28;20025;-83
2020/12/18 09:26:45;;;;;;;;;;;8.20;87.20;;;;;;5037418;28;20059;-84
2020/12/18 09:29:18;;;;;;;6.63;2.17;;;8.30;86.90;;;;;;5037104;28;20374;-83
2020/12/18 09:31:45;;;;;;;7.10;2.03;;;8.20;86.90;;;;;;5018815;28;20029;-83
2020/12/18 09:34:13;;;;;;;9.60;3.20;;;8.30;87.10;;;;;;5036447;28;20057;-83
2020/12/18 09:36:39;;;;;;;7.83;2.23;;;8.30;87.10;;;;;;5037535;28;20026;-83
2020/12/18 09:39:04;;;;;;;5.77;2.33;;;8.30;87.00;;;;;;5017430;28;20031;-83
2020/12/18 09:41:30;;;;;;;5.70;2.30;;;8.30;87.00;;;;;;5018286;28;20017;-83
2020/12/18 09:43:56;;;;;;;9.63;2.87;;;8.30;87.00;;;;;;5018612;28;20089;-83
2020/12/18 09:46:24;;;;;;;7.13;2.40;;;8.40;87.20;;;;;;5018164;28;20022;-84
2020/12/18 09:48:51;;;;;;;7.33;2.50;;;8.30;87.10;;;;;;5018571;28;20466;-83
2020/12/18 09:51:17;;;;;;;5.23;2.27;;;8.30;87.10;;;;;;5017303;28;20029;-83
2020/12/18 09:53:44;;;;;;;7.83;2.60;;;8.40;87.90;;;;;;5018384;28;20471;-83
2020/12/18 09:56:14;;;;;;;7.50;2.87;;;8.40;87.10;;;;;;5036222;28;20119;-83
2020/12/18 09:58:40;;;;;;;5.33;2.23;;;8.40;87.10;;;;;;5035433;28;20061;-84
2020/12/18 10:01:07;;;;;;;9.83;2.97;;;8.40;86.90;;;;;;5017421;28;20397;-83
2020/12/18 10:03:33;;;;;;;7.47;2.20;;;8.50;86.80;;;;;;5018087;28;20025;-83
2020/12/18 10:05:58;;;;;;;8.77;2.60;;;8.40;86.90;;;;;;5035712;28;20060;-83
2020/12/18 10:08:24;;;;;;;7.57;2.53;;;8.40;86.70;;;;;;5017823;28;20029;-83
2020/12/18 10:10:50;;;;;;;6.67;2.80;;;8.50;86.60;;;;;;5017342;28;20034;-83
2020/12/18 10:13:15;;;;;;;8.13;2.47;;;8.40;86.50;;;;;;5036146;28;20048;-82
2020/12/18 10:15:41;;;;;;;8.10;3.10;;;8.50;86.40;;;;;;5017864;28;20540;-83
2020/12/18 10:18:07;;;;;;;8.47;2.83;;;8.50;86.40;;;;;;5018817;28;20034;-83
2020/12/18 10:20:33;;;;;;;5.80;2.40;;;8.50;86.50;;;;;;5018633;28;20265;-84
2020/12/18 10:22:59;;;;;;;6.70;2.50;;;8.50;86.10;;;;;;5018896;28;20501;-83
2020/12/18 10:25:24;;;;;;;6.23;2.40;;;8.60;86.20;;;;;;5036775;28;20029;-84
2020/12/18 10:27:53;;;;;;;8.53;2.83;;;8.60;86.10;;;;;;5037146;28;20025;-83
2020/12/18 10:30:20;;;;;;;9.60;2.90;;;8.60;86.20;;;;;;5035390;28;20032;-83
2020/12/18 10:32:46;;;;;;;7.43;2.53;;;8.60;85.80;;;;;;5018732;28;20033;-84
2020/12/18 10:35:12;;;;;;;6.27;2.60;;;8.60;85.90;;;;;;5035905;28;20515;-84
2020/12/18 10:37:38;;;;;;;6.97;2.80;;;8.70;85.80;;;;;;5035896;28;20021;-84
2020/12/18 10:40:05;;;;;;;5.23;2.53;;;8.70;85.70;;;;;;5035562;28;20025;-84
2020/12/18 10:42:31;;;;;;;7.97;2.90;;;8.70;85.50;;;;;;5035997;28;20021;-84
2020/12/18 10:44:57;;;;;;;6.63;2.87;;;8.70;85.60;;;;;;5018071;28;20025;-83
2020/12/18 10:47:22;;;;;;;10.53;2.73;;;8.70;85.60;;;;;;5035730;28;20471;-83
2020/12/18 10:49:48;;;;;;;5.70;2.43;;;8.70;85.50;;;;;;5017276;28;20474;-84
2020/12/18 10:52:14;;;;;;;7.30;2.70;;;8.70;85.50;;;;;;5018007;28;20534;-83
2020/12/18 10:54:39;;;;;;;7.57;2.53;;;8.80;85.40;;;;;;5017871;28;20052;-84
2020/12/18 10:57:05;;;;;;;6.20;2.40;;;8.80;86.00;;;;;;5035556;28;20040;-84
2020/12/18 10:59:31;;;;;;;8.97;3.50;;;8.80;85.20;;;;;;5035492;28;20029;-84
2020/12/18 11:01:58;;;;;;;10.50;3.10;;;8.80;85.00;;;;;;5016472;28;20036;-83
2020/12/18 11:04:25;;;;;;;7.10;2.80;;;8.90;84.80;;;;;;5035262;28;20056;-84
2020/12/18 11:06:51;;;;;;;7.20;2.67;;;8.90;85.10;;;;;;5017418;28;20095;-84
2020/12/18 11:09:16;;;;;;;8.73;2.67;;;8.90;84.80;;;;;;5034576;28;20474;-83
2020/12/18 11:11:44;;;;;;;7.23;2.53;;;8.90;84.80;;;;;;5034937;28;20037;-83
2020/12/18 11:14:11;;;;;;;6.30;2.50;;;8.90;84.80;;;;;;5035102;28;20034;-83
2020/12/18 11:16:37;;;;;;;7.33;2.47;;;9.00;84.60;;;;;;5017353;28;20037;-83
2020/12/18 11:19:04;;;;;;;8.33;2.67;;;9.00;84.50;;;;;;5034736;28;20036;-84
2020/12/18 11:21:30;;;;;;;8.40;2.70;;;9.00;84.20;;;;;;5017342;28;20040;-83
2020/12/18 11:23:57;;;;;;;4.97;2.33;;;9.00;84.10;;;;;;5016749;28;20017;-84
2020/12/18 11:26:24;;;;;;;10.70;3.87;;;9.00;84.40;;;;;;5034889;28;20092;-84
2020/12/18 11:28:50;;;;;;;7.53;2.97;;;9.00;84.10;;;;;;5035108;28;20367;-84
2020/12/18 11:31:16;;;;;;;5.70;2.33;;;9.10;84.10;;;;;;5016622;28;20112;-84
2020/12/18 11:33:42;;;;;;;7.40;2.50;;;9.10;83.80;;;;;;5035281;28;20030;-83
2020/12/18 11:36:08;;;;;;;7.17;2.70;;;9.10;83.40;;;;;;5034686;28;20041;-83
2020/12/18 11:38:34;;;;;;;8.63;2.50;;;9.10;84.10;;;;;;5035211;28;20033;-83
2020/12/18 11:40:59;;;;;;;5.13;2.27;;;9.10;83.20;;;;;;5016512;28;20120;-83
2020/12/18 11:43:25;;;;;;;7.77;2.43;;;9.10;82.90;;;;;;5034636;28;20026;-83
2020/12/18 11:45:51;;;;;;;7.00;2.13;;;9.20;83.50;;;;;;5035603;28;20026;-84
2020/12/18 11:48:16;;;;;;;10.60;5.53;;;9.20;83.00;;;;;;5018349;28;20514;-83
2020/12/18 11:50:42;;;;;;;22.83;13.57;;;9.20;83.00;;;;;;5035059;28;20052;-82
2020/12/18 11:53:10;;;;;;;16.63;8.50;;;9.20;83.40;;;;;;5017447;28;20025;-83
2020/12/18 11:55:37;;;;;;;14.07;5.80;;;9.20;83.30;;;;;;5035276;28;20029;-83
2020/12/18 11:58:03;;;;;;;14.50;5.63;;;9.20;83.30;;;;;;5034527;28;20482;-83
2020/12/18 12:00:28;;;;;;;13.80;5.13;;;9.30;82.90;;;;;;5017273;28;20075;-83
2020/12/18 12:02:54;;;;;;;12.40;3.57;;;9.30;82.80;;;;;;5017268;28;20067;-83
2020/12/18 12:05:22;;;;;;;9.77;2.87;;;9.30;82.50;;;;;;5034742;28;20533;-83
2020/12/18 12:07:48;;;;;;;6.57;2.53;;;9.30;82.40;;;;;;5035538;28;20021;-83
2020/12/18 12:10:15;;;;;;;7.77;2.50;;;9.30;82.50;;;;;;5017308;28;20502;-83
2020/12/18 12:12:41;;;;;;;6.57;2.73;;;9.30;82.30;;;;;;5018669;28;20041;-83
2020/12/18 12:15:07;;;;;;;11.27;2.70;;;9.40;82.40;;;;;;5056392;23;20096;-88
2020/12/18 12:17:33;;;;;;;6.67;2.60;;;9.30;82.30;;;;;;5027241;28;20030;-86
2020/12/18 12:19:59;;;;;;;6.27;2.57;;;9.30;82.30;;;;;;5026921;28;20538;-87
2020/12/18 12:22:25;;;;;;;7.17;2.30;;;9.30;82.20;;;;;;5026624;28;20023;-87
2020/12/18 12:24:51;;;;;;;6.63;2.47;;;9.40;82.40;;;;;;5026593;28;20018;-87
2020/12/18 12:27:23;;;;;;;6.30;2.50;;;9.40;82.40;;;;;;5027925;28;20041;-87
2020/12/18 12:29:53;;;;;;;7.57;2.47;;;9.40;82.00;;;;;;5027736;28;20539;-86
2020/12/18 12:32:21;;;;;;;7.90;2.60;;;9.40;81.60;;;;;;5026680;28;20022;-88
2020/12/18 12:34:47;;;;;;;7.18;2.45;;;9.50;81.10;;;;;;5027625;28;20089;-88
2020/12/18 12:37:13;;;;;;;7.17;2.23;;;9.50;80.70;;;;;;5032189;28;20064;-86
2020/12/18 12:39:40;;;;;;;5.47;2.00;;;9.50;80.40;;;;;;5030736;28;20469;-87
2020/12/18 12:42:06;;;;;;;5.70;2.33;;;9.50;80.20;;;;;;5030635;28;20025;-87
2020/12/18 12:44:32;;;;;;;8.77;2.20;;;9.50;80.50;;;;;;5047481;28;20471;-88
2020/12/18 12:46:58;;;;;;;4.87;1.90;;;9.40;80.70;;;;;;5031020;28;20140;-87
2020/12/18 12:49:24;;;;;;;7.37;2.13;;;9.50;80.40;;;;;;5029929;28;20026;-85
2020/12/18 12:51:58;;;;;;;5.33;2.13;;;9.50;80.00;;;;;;5030336;28;20029;-85
2020/12/18 12:54:24;;;;;;;10.97;2.30;;;9.50;80.00;;;;;;5029053;28;20543;-86
2020/12/18 12:56:50;;;;;;;9.47;3.13;;;9.60;80.10;;;;;;5031654;28;20076;-87